Time;durP1;ratioP1;P1;durP2;ratioP2;P2;SDS_P1;SDS_P2;PMS_P1;PMS_P2;Temp;Humidity;BMP_temperature;BMP_pressure;BME280_temperature;BME280_humidity;BME280_pressure;Samples;Min_cycle;Max_cycle;Signal;HPM_P1;HPM_P2
2021/11/13 00:00:00;;;;;;;41.13;28.77;;;;;;;;;;5056061;28;20678;-70
2021/11/13 00:02:27;;;;;;;42.63;28.33;;;;;;;;;;5056105;28;20207;-71
2021/11/13 00:04:53;;;;;;;45.00;32.27;;;;;;;;;;5059288;28;20227;-70
2021/11/13 00:07:20;;;;;;;47.37;32.93;;;;;;;;;;5058362;28;21204;-70
2021/11/13 00:09:48;;;;;;;46.50;33.10;;;;;;;;;;5055780;28;20219;-70
2021/11/13 00:12:14;;;;;;;41.80;31.73;;;;;;;;;;5056242;28;20297;-71
2021/11/13 00:14:44;;;;;;;51.83;35.83;;;;;;;;;;5054735;28;20641;-70
2021/11/13 00:17:12;;;;;;;41.00;32.67;;;;;;;;;;5056263;28;20220;-70
2021/11/13 00:19:38;;;;;;;50.43;36.70;;;;;;;;;;5056468;28;20257;-70
2021/11/13 00:22:04;;;;;;;45.50;33.50;;;;;;;;;;5054572;28;20231;-70
2021/11/13 00:24:31;;;;;;;45.77;35.17;;;;;;;;;;5056557;28;20216;-70
2021/11/13 00:27:00;;;;;;;47.10;34.53;;;;;;;;;;5055987;28;20215;-70
2021/11/13 00:29:26;;;;;;;44.13;31.40;;;;;;;;;;5057172;28;20281;-70
2021/11/13 00:31:54;;;;;;;42.77;32.27;;;;;;;;;;5055946;28;20269;-70
2021/11/13 00:34:20;;;;;;;42.73;30.90;;;;;;;;;;5056045;28;20288;-70
2021/11/13 00:36:47;;;;;;;52.93;38.27;;;;;;;;;;5057553;28;20685;-70
2021/11/13 00:39:13;;;;;;;48.77;37.57;;;;;;;;;;5057693;28;20622;-70
2021/11/13 00:41:40;;;;;;;48.27;35.80;;;;;;;;;;5058318;28;20232;-70
2021/11/13 00:44:07;;;;;;;46.67;37.43;;;;;;;;;;5054617;28;20235;-70
2021/11/13 00:46:34;;;;;;;39.70;31.70;;;;;;;;;;5055862;28;20212;-70
2021/11/13 00:49:01;;;;;;;43.07;33.43;;;;;;;;;;5057561;28;20720;-70
2021/11/13 00:51:28;;;;;;;43.87;33.80;;;;;;;;;;5055850;28;20227;-70
2021/11/13 00:53:54;;;;;;;42.13;31.53;;;;;;;;;;5056200;28;20296;-70
2021/11/13 00:56:20;;;;;;;42.60;32.10;;;;;;;;;;5055856;28;20624;-70
2021/11/13 00:58:48;;;;;;;41.60;33.17;;;;;;;;;;5054425;28;20223;-71
2021/11/13 01:01:16;;;;;;;45.20;34.93;;;;;;;;;;5055160;28;20231;-71
2021/11/13 01:03:43;;;;;;;37.97;25.57;;;;;;;;;;5056968;28;20283;-70
2021/11/13 01:06:09;;;;;;;48.10;33.73;;;;;;;;;;5056367;28;20643;-71
2021/11/13 01:08:36;;;;;;;44.67;32.20;;;;;;;;;;5055372;28;20651;-71
2021/11/13 01:11:03;;;;;;;50.00;37.50;;;;;;;;;;5056464;28;20214;-71
2021/11/13 01:13:29;;;;;;;46.43;35.60;;;;;;;;;;5058675;28;20216;-71
2021/11/13 01:15:56;;;;;;;52.07;39.40;;;;;;;;;;5058015;28;20702;-71
2021/11/13 01:18:24;;;;;;;52.77;38.63;;;;;;;;;;5056327;28;20593;-71
2021/11/13 01:20:51;;;;;;;53.30;41.03;;;;;;;;;;5056773;28;20244;-71
2021/11/13 01:23:17;;;;;;;59.00;42.13;;;;;;;;;;5056758;28;20268;-71
2021/11/13 01:25:44;;;;;;;58.97;43.77;;;;;;;;;;5053355;28;20286;-71
2021/11/13 01:28:10;;;;;;;44.17;30.10;;;;;;;;;;5057413;28;20212;-71
2021/11/13 01:30:37;;;;;;;50.93;38.90;;;;;;;;;;5056316;28;20279;-71
2021/11/13 01:33:04;;;;;;;55.43;41.90;;;;;;;;;;5054094;28;20298;-72
2021/11/13 01:35:32;;;;;;;51.90;37.93;;;;;;;;;;5057201;28;20216;-72
2021/11/13 01:37:58;;;;;;;55.93;42.33;;;;;;;;;;5056097;28;20296;-71
2021/11/13 01:40:26;;;;;;;53.83;40.10;;;;;;;;;;5054196;28;20204;-71
2021/11/13 01:42:55;;;;;;;62.60;43.63;;;;;;;;;;5057725;28;20211;-71
2021/11/13 01:45:23;;;;;;;58.17;43.00;;;;;;;;;;5055378;28;20234;-72
2021/11/13 01:47:50;;;;;;;55.03;38.63;;;;;;;;;;5052913;28;20219;-72
2021/11/13 01:50:19;;;;;;;51.30;38.00;;;;;;;;;;5057475;28;20207;-72
2021/11/13 01:52:48;;;;;;;56.07;37.93;;;;;;;;;;5055807;28;20700;-71
2021/11/13 01:55:20;;;;;;;61.30;45.63;;;;;;;;;;5055248;28;20276;-71
2021/11/13 01:57:47;;;;;;;61.20;44.53;;;;;;;;;;5054254;28;20243;-71
2021/11/13 02:00:19;;;;;;;57.67;41.37;;;;;;;;;;5055730;28;20226;-71
2021/11/13 02:02:45;;;;;;;54.07;39.77;;;;;;;;;;5053798;28;20528;-71
2021/11/13 02:05:12;;;;;;;62.20;43.53;;;;;;;;;;5055048;28;20269;-71
2021/11/13 02:07:38;;;;;;;54.50;40.67;;;;;;;;;;5054445;28;20230;-71
2021/11/13 02:10:08;;;;;;;53.63;41.10;;;;;;;;;;5053400;28;20241;-71
2021/11/13 02:12:35;;;;;;;56.33;40.70;;;;;;;;;;5055052;28;20198;-71
2021/11/13 02:15:02;;;;;;;56.30;41.57;;;;;;;;;;5057621;28;20284;-71
2021/11/13 02:17:28;;;;;;;53.30;39.97;;;;;;;;;;5055940;28;20352;-71
2021/11/13 02:19:56;;;;;;;55.33;39.77;;;;;;;;;;5056116;28;20241;-71
2021/11/13 02:22:24;;;;;;;57.83;40.87;;;;;;;;;;5054930;28;20235;-71
2021/11/13 02:24:51;;;;;;;40.70;31.53;;;;;;;;;;5055090;28;20219;-71
2021/11/13 02:27:17;;;;;;;57.37;42.13;;;;;;;;;;5053809;28;20211;-71
2021/11/13 02:29:43;;;;;;;51.77;36.73;;;;;;;;;;5054544;28;20289;-71
2021/11/13 02:32:11;;;;;;;52.63;38.83;;;;;;;;;;5054535;28;20232;-71
2021/11/13 02:34:38;;;;;;;46.80;34.23;;;;;;;;;;5053656;28;20599;-71
2021/11/13 02:37:06;;;;;;;52.60;39.70;;;;;;;;;;5055437;28;20234;-72
2021/11/13 02:39:33;;;;;;;52.10;40.23;;;;;;;;;;5056254;28;20266;-71
2021/11/13 02:41:59;;;;;;;59.47;41.53;;;;;;;;;;5054488;28;25039;-72
2021/11/13 02:44:26;;;;;;;49.50;39.13;;;;;;;;;;5053755;28;20224;-71
2021/11/13 02:46:53;;;;;;;50.63;38.57;;;;;;;;;;5056169;28;20247;-71
2021/11/13 02:49:20;;;;;;;52.60;38.97;;;;;;;;;;5053137;28;20680;-72
2021/11/13 02:51:48;;;;;;;51.87;38.77;;;;;;;;;;5056959;28;20234;-71
2021/11/13 02:54:16;;;;;;;52.20;39.50;;;;;;;;;;5054936;28;20220;-71
2021/11/13 02:56:42;;;;;;;56.43;40.70;;;;;;;;;;5053375;28;20211;-71
2021/11/13 02:59:09;;;;;;;49.80;37.53;;;;;;;;;;5058023;28;20290;-71
2021/11/13 03:01:36;;;;;;;53.33;39.30;;;;;;;;;;5059098;28;20791;-71
2021/11/13 03:04:02;;;;;;;47.73;35.93;;;;;;;;;;5055043;28;20285;-71
2021/11/13 03:06:29;;;;;;;56.60;39.50;;;;;;;;;;5056920;28;20229;-71
2021/11/13 03:08:55;;;;;;;46.20;37.37;;;;;;;;;;5054911;28;20884;-71
2021/11/13 03:11:23;;;;;;;46.47;36.27;;;;;;;;;;5058028;28;20288;-71
2021/11/13 03:13:51;;;;;;;52.40;41.33;;;;;;;;;;5058549;28;20802;-71
2021/11/13 03:16:20;;;;;;;44.93;35.03;;;;;;;;;;5057837;28;20216;-71
2021/11/13 03:18:46;;;;;;;48.20;37.70;;;;;;;;;;5055835;28;20215;-71
2021/11/13 03:21:14;;;;;;;54.47;37.80;;;;;;;;;;5057019;28;20237;-71
2021/11/13 03:23:44;;;;;;;38.80;27.53;;;;;;;;;;5055445;28;20262;-70
2021/11/13 03:26:14;;;;;;;50.77;37.30;;;;;;;;;;5058855;28;20598;-73
2021/11/13 03:28:46;;;;;;;46.67;34.23;;;;;;;;;;5060921;28;20239;-72
2021/11/13 03:31:13;;;;;;;51.73;39.33;;;;;;;;;;5058364;28;20285;-72
2021/11/13 03:33:41;;;;;;;48.13;36.23;;;;;;;;;;5058993;28;20280;-72
2021/11/13 03:36:08;;;;;;;56.23;40.73;;;;;;;;;;5058875;28;20235;-72
2021/11/13 03:38:36;;;;;;;51.63;37.43;;;;;;;;;;5058974;28;20216;-72
2021/11/13 03:41:02;;;;;;;46.07;32.07;;;;;;;;;;5055931;28;21155;-72
2021/11/13 03:43:29;;;;;;;55.70;39.43;;;;;;;;;;5055781;28;20862;-72
2021/11/13 03:45:57;;;;;;;51.97;37.50;;;;;;;;;;5056830;28;20204;-72
2021/11/13 03:48:23;;;;;;;43.37;34.93;;;;;;;;;;5057085;28;20297;-71
2021/11/13 03:50:50;;;;;;;50.33;36.63;;;;;;;;;;5055534;28;20223;-72
2021/11/13 03:53:16;;;;;;;49.13;36.87;;;;;;;;;;5056570;28;20228;-71
2021/11/13 03:55:43;;;;;;;38.63;30.80;;;;;;;;;;5056852;28;20242;-72
2021/11/13 03:58:09;;;;;;;44.77;34.80;;;;;;;;;;5056948;28;20216;-71
2021/11/13 04:00:36;;;;;;;48.80;35.00;;;;;;;;;;5056680;28;20290;-72
2021/11/13 04:03:04;;;;;;;49.47;34.67;;;;;;;;;;5054828;28;20282;-71
2021/11/13 04:05:31;;;;;;;43.23;33.63;;;;;;;;;;5055044;28;20219;-72
2021/11/13 04:07:58;;;;;;;48.27;35.57;;;;;;;;;;5057544;28;20267;-72
2021/11/13 04:10:25;;;;;;;40.07;32.03;;;;;;;;;;5055783;28;20210;-72
2021/11/13 04:12:53;;;;;;;42.40;32.43;;;;;;;;;;5056389;28;20207;-72
2021/11/13 04:15:19;;;;;;;43.47;32.27;;;;;;;;;;5057564;28;20282;-73
2021/11/13 04:17:49;;;;;;;38.07;30.83;;;;;;;;;;5056808;28;20679;-72
2021/11/13 04:20:18;;;;;;;34.80;28.47;;;;;;;;;;5057534;28;20694;-72
2021/11/13 04:22:47;;;;;;;38.93;29.53;;;;;;;;;;5056913;28;20236;-73
2021/11/13 04:25:13;;;;;;;40.80;31.57;;;;;;;;;;5058320;28;20219;-72
2021/11/13 04:27:40;;;;;;;41.50;30.10;;;;;;;;;;5058178;28;20217;-72
2021/11/13 04:30:09;;;;;;;40.73;30.80;;;;;;;;;;5055597;28;20632;-72
2021/11/13 04:32:37;;;;;;;45.50;32.77;;;;;;;;;;5056248;28;20219;-72
2021/11/13 04:35:15;;;;;;;43.37;32.57;;;;;;;;;;5057571;28;20208;-72
2021/11/13 04:37:44;;;;;;;39.10;31.13;;;;;;;;;;5054191;28;20244;-72
2021/11/13 04:40:11;;;;;;;38.17;30.43;;;;;;;;;;5055551;28;20277;-71
2021/11/13 04:42:37;;;;;;;38.43;29.97;;;;;;;;;;5053501;28;20285;-71
2021/11/13 04:45:04;;;;;;;39.17;30.40;;;;;;;;;;5055323;28;20225;-71
2021/11/13 04:47:33;;;;;;;34.30;28.00;;;;;;;;;;5056330;28;20302;-71
2021/11/13 04:50:00;;;;;;;44.40;32.80;;;;;;;;;;5054976;28;20279;-71
2021/11/13 04:52:26;;;;;;;37.27;29.63;;;;;;;;;;5055366;28;20225;-71
2021/11/13 04:54:54;;;;;;;37.70;31.20;;;;;;;;;;5055116;28;20287;-71
2021/11/13 04:57:20;;;;;;;41.67;32.73;;;;;;;;;;5054017;28;20212;-72
2021/11/13 04:59:47;;;;;;;41.40;31.13;;;;;;;;;;5054842;28;20233;-71
2021/11/13 05:02:13;;;;;;;40.10;29.90;;;;;;;;;;5055823;28;20283;-71
2021/11/13 05:04:39;;;;;;;32.50;27.37;;;;;;;;;;5054543;28;20301;-71
2021/11/13 05:07:06;;;;;;;38.57;29.90;;;;;;;;;;5055962;28;20266;-71
2021/11/13 05:09:32;;;;;;;35.30;28.10;;;;;;;;;;5054155;28;20208;-71
2021/11/13 05:12:00;;;;;;;39.77;30.93;;;;;;;;;;5054253;28;20217;-71
2021/11/13 05:14:26;;;;;;;45.60;32.57;;;;;;;;;;5053896;28;20268;-71
2021/11/13 05:16:53;;;;;;;48.13;33.13;;;;;;;;;;5054105;28;20220;-71
2021/11/13 05:19:19;;;;;;;48.37;33.73;;;;;;;;;;5054990;28;20254;-71
2021/11/13 05:21:45;;;;;;;41.57;31.77;;;;;;;;;;5053726;28;20790;-71
2021/11/13 05:24:12;;;;;;;43.90;30.80;;;;;;;;;;5054460;28;20224;-71
2021/11/13 05:26:38;;;;;;;46.93;33.50;;;;;;;;;;5054368;28;20266;-71
2021/11/13 05:29:06;;;;;;;35.43;25.33;;;;;;;;;;5053161;28;20228;-71
2021/11/13 05:31:32;;;;;;;45.07;30.70;;;;;;;;;;5053933;28;20219;-75
2021/11/13 05:33:59;;;;;;;39.63;30.83;;;;;;;;;;5054175;28;20319;-75
2021/11/13 05:36:25;;;;;;;42.00;30.73;;;;;;;;;;5052250;28;20319;-74
2021/11/13 05:38:52;;;;;;;39.30;30.80;;;;;;;;;;5054313;28;20363;-75
2021/11/13 05:41:18;;;;;;;38.87;29.27;;;;;;;;;;5055534;28;20266;-75
2021/11/13 05:43:45;;;;;;;41.43;29.67;;;;;;;;;;5053378;28;20641;-75
2021/11/13 05:46:15;;;;;;;36.97;28.47;;;;;;;;;;5053200;28;20637;-75
2021/11/13 05:48:41;;;;;;;37.77;29.37;;;;;;;;;;5052994;28;20595;-75
2021/11/13 05:51:08;;;;;;;40.57;29.97;;;;;;;;;;5054441;28;20388;-75
2021/11/13 05:53:34;;;;;;;42.33;30.20;;;;;;;;;;5053945;28;20208;-75
2021/11/13 05:56:01;;;;;;;37.77;30.00;;;;;;;;;;5053872;28;20305;-75
2021/11/13 05:58:27;;;;;;;37.83;29.30;;;;;;;;;;5054274;28;20207;-76
2021/11/13 06:00:54;;;;;;;42.27;31.20;;;;;;;;;;5053936;28;20611;-75
2021/11/13 06:03:21;;;;;;;35.50;27.50;;;;;;;;;;5051976;28;20231;-75
2021/11/13 06:05:48;;;;;;;44.33;30.37;;;;;;;;;;5051029;28;20270;-75
2021/11/13 06:08:14;;;;;;;41.23;31.33;;;;;;;;;;5052759;28;20224;-75
2021/11/13 06:10:41;;;;;;;37.40;28.97;;;;;;;;;;5053460;28;20283;-75
2021/11/13 06:13:07;;;;;;;47.37;31.23;;;;;;;;;;5052715;28;20216;-75
2021/11/13 06:15:34;;;;;;;40.47;29.13;;;;;;;;;;5054546;28;20284;-75
2021/11/13 06:18:01;;;;;;;38.17;28.73;;;;;;;;;;5052547;28;20213;-76
2021/11/13 06:20:29;;;;;;;35.90;28.97;;;;;;;;;;5053631;28;20263;-76
2021/11/13 06:22:56;;;;;;;34.60;25.93;;;;;;;;;;5052956;28;20230;-75
2021/11/13 06:25:22;;;;;;;39.37;29.27;;;;;;;;;;5053797;28;20213;-75
2021/11/13 06:27:49;;;;;;;41.67;30.70;;;;;;;;;;5054196;28;20271;-75
2021/11/13 06:30:17;;;;;;;31.47;24.50;;;;;;;;;;5053177;28;20617;-76
2021/11/13 06:32:45;;;;;;;38.43;27.57;;;;;;;;;;5056287;28;20207;-76
2021/11/13 06:35:12;;;;;;;40.50;28.37;;;;;;;;;;5058044;28;20214;-75
2021/11/13 06:37:40;;;;;;;34.60;25.47;;;;;;;;;;5057106;28;20327;-75
2021/11/13 06:40:08;;;;;;;32.17;23.83;;;;;;;;;;5057464;28;20208;-75
2021/11/13 06:42:37;;;;;;;34.27;26.17;;;;;;;;;;5058125;28;20224;-75
2021/11/13 06:45:04;;;;;;;40.23;27.83;;;;;;;;;;5056636;28;20690;-75
2021/11/13 06:47:30;;;;;;;32.80;25.87;;;;;;;;;;5056162;28;20216;-75
2021/11/13 06:49:57;;;;;;;43.27;28.97;;;;;;;;;;5055858;28;20220;-75
2021/11/13 06:52:23;;;;;;;37.27;27.67;;;;;;;;;;5055619;28;20225;-75
2021/11/13 06:54:51;;;;;;;42.53;29.87;;;;;;;;;;5056344;28;20224;-75
2021/11/13 06:57:18;;;;;;;38.77;28.40;;;;;;;;;;5056618;28;20216;-76
2021/11/13 06:59:44;;;;;;;36.93;27.63;;;;;;;;;;5056877;28;20228;-75
2021/11/13 07:02:11;;;;;;;43.40;30.13;;;;;;;;;;5056814;28;20296;-75
2021/11/13 07:04:37;;;;;;;34.87;26.73;;;;;;;;;;5056966;28;20241;-75
2021/11/13 07:07:05;;;;;;;40.37;28.03;;;;;;;;;;5055758;28;20773;-75
2021/11/13 07:09:31;;;;;;;42.47;28.17;;;;;;;;;;5055588;28;20228;-76
2021/11/13 07:11:59;;;;;;;37.27;26.80;;;;;;;;;;5054306;28;20214;-75
2021/11/13 07:14:27;;;;;;;34.70;25.83;;;;;;;;;;5055350;28;20931;-75
2021/11/13 07:16:53;;;;;;;38.50;26.67;;;;;;;;;;5053725;28;20874;-75
2021/11/13 07:19:20;;;;;;;37.07;27.17;;;;;;;;;;5055826;28;20208;-76
2021/11/13 07:21:46;;;;;;;38.23;27.20;;;;;;;;;;5055948;28;20242;-75
2021/11/13 07:24:14;;;;;;;38.67;27.63;;;;;;;;;;5055152;28;20239;-75
2021/11/13 07:26:41;;;;;;;37.53;27.00;;;;;;;;;;5053830;28;20292;-75
2021/11/13 07:29:12;;;;;;;43.77;27.50;;;;;;;;;;5055308;28;20235;-75
2021/11/13 07:31:39;;;;;;;35.70;26.33;;;;;;;;;;5055976;28;20295;-75
2021/11/13 07:34:05;;;;;;;41.60;27.70;;;;;;;;;;5055139;28;20801;-76
2021/11/13 07:36:32;;;;;;;33.93;25.60;;;;;;;;;;5054631;28;20240;-75
2021/11/13 07:38:59;;;;;;;33.43;24.47;;;;;;;;;;5056654;28;20330;-75
2021/11/13 07:41:25;;;;;;;34.10;25.93;;;;;;;;;;5053849;28;20211;-75
2021/11/13 07:43:52;;;;;;;36.40;25.53;;;;;;;;;;5055040;28;20325;-75
2021/11/13 07:46:20;;;;;;;42.07;27.67;;;;;;;;;;5054388;28;20217;-75
2021/11/13 07:48:46;;;;;;;34.07;26.07;;;;;;;;;;5054983;28;20217;-75
2021/11/13 07:51:13;;;;;;;40.63;27.73;;;;;;;;;;5053990;28;20851;-76
2021/11/13 07:53:39;;;;;;;38.00;27.83;;;;;;;;;;5055988;28;20323;-75
2021/11/13 07:56:06;;;;;;;41.13;28.47;;;;;;;;;;5054134;28;20282;-75
2021/11/13 07:58:32;;;;;;;43.33;28.87;;;;;;;;;;5053446;28;20284;-74
2021/11/13 08:00:59;;;;;;;38.57;26.63;;;;;;;;;;5056019;28;20214;-75
2021/11/13 08:03:27;;;;;;;39.57;26.30;;;;;;;;;;5055439;28;20232;-75
2021/11/13 08:05:54;;;;;;;38.50;27.67;;;;;;;;;;5054236;28;20233;-75
2021/11/13 08:08:20;;;;;;;42.13;28.90;;;;;;;;;;5055309;28;20266;-74
2021/11/13 08:10:46;;;;;;;39.77;28.30;;;;;;;;;;5052280;28;20203;-75
2021/11/13 08:13:15;;;;;;;50.43;31.23;;;;;;;;;;5053656;28;20634;-75
2021/11/13 08:15:42;;;;;;;48.00;30.07;;;;;;;;;;5054993;28;20226;-75
2021/11/13 08:18:10;;;;;;;46.50;29.03;;;;;;;;;;5053562;28;20617;-75
2021/11/13 08:20:38;;;;;;;39.47;27.03;;;;;;;;;;5055085;28;20613;-75
2021/11/13 08:23:08;;;;;;;55.17;32.63;;;;;;;;;;5054147;28;20265;-75
2021/11/13 08:25:35;;;;;;;41.60;28.23;;;;;;;;;;5056141;28;20684;-75
2021/11/13 08:28:02;;;;;;;64.33;34.27;;;;;;;;;;5051326;28;20211;-75
2021/11/13 08:30:29;;;;;;;69.27;32.27;;;;;;;;;;5057028;28;20233;-75
2021/11/13 08:32:56;;;;;;;69.20;33.67;;;;;;;;;;5053243;28;20414;-74
2021/11/13 08:35:23;;;;;;;112.47;37.23;;;;;;;;;;5052937;28;20438;-74
2021/11/13 08:37:51;;;;;;;167.17;40.63;;;;;;;;;;5053602;28;20225;-75
2021/11/13 08:40:17;;;;;;;142.67;33.13;;;;;;;;;;5053199;28;20217;-75
2021/11/13 08:42:44;;;;;;;203.53;42.10;;;;;;;;;;5054414;28;20252;-75
2021/11/13 08:45:12;;;;;;;194.23;44.30;;;;;;;;;;5053386;28;20240;-75
2021/11/13 08:47:40;;;;;;;160.87;38.13;;;;;;;;;;5051738;28;20213;-75
2021/11/13 08:50:09;;;;;;;179.50;41.13;;;;;;;;;;5053562;28;20213;-75
2021/11/13 08:52:36;;;;;;;162.67;38.87;;;;;;;;;;5052659;28;20370;-75
2021/11/13 08:55:05;;;;;;;172.13;39.60;;;;;;;;;;5052134;28;20278;-75
2021/11/13 08:57:31;;;;;;;166.97;39.37;;;;;;;;;;5053754;28;20243;-75
2021/11/13 08:59:58;;;;;;;232.13;42.10;;;;;;;;;;5051405;28;20224;-75
2021/11/13 09:02:26;;;;;;;226.93;44.60;;;;;;;;;;5052773;28;20707;-75
2021/11/13 09:04:55;;;;;;;270.47;49.00;;;;;;;;;;5052931;28;20286;-75
2021/11/13 09:07:22;;;;;;;204.23;44.33;;;;;;;;;;5053683;28;20237;-76
2021/11/13 09:09:49;;;;;;;197.33;41.73;;;;;;;;;;5052282;28;20221;-75
2021/11/13 09:12:25;;;;;;;139.57;37.20;;;;;;;;;;5053263;28;20652;-74
2021/11/13 09:14:53;;;;;;;309.20;47.63;;;;;;;;;;5053463;28;20231;-74
2021/11/13 09:17:20;;;;;;;168.40;41.77;;;;;;;;;;5052729;28;20213;-74
2021/11/13 09:19:48;;;;;;;146.60;40.50;;;;;;;;;;5052757;28;20301;-75
2021/11/13 09:22:14;;;;;;;324.90;54.03;;;;;;;;;;5052378;28;20278;-76
2021/11/13 09:24:41;;;;;;;241.53;46.37;;;;;;;;;;5053246;28;20575;-75
2021/11/13 09:27:07;;;;;;;139.50;36.63;;;;;;;;;;5051366;28;20226;-75
2021/11/13 09:29:35;;;;;;;137.77;35.80;;;;;;;;;;5051695;28;20745;-75
2021/11/13 09:32:02;;;;;;;73.17;29.87;;;;;;;;;;5054196;28;20216;-75
2021/11/13 09:34:28;;;;;;;84.13;30.27;;;;;;;;;;5051007;28;20228;-75
2021/11/13 09:36:55;;;;;;;145.40;39.10;;;;;;;;;;5052864;28;20225;-75
2021/11/13 09:39:22;;;;;;;122.10;35.27;;;;;;;;;;5052540;28;20282;-75
2021/11/13 09:41:50;;;;;;;123.27;36.80;;;;;;;;;;5051661;28;20210;-74
2021/11/13 09:44:18;;;;;;;132.53;36.17;;;;;;;;;;5051967;28;20237;-77
2021/11/13 09:46:46;;;;;;;124.90;36.63;;;;;;;;;;5051882;28;20205;-76
2021/11/13 09:49:14;;;;;;;134.60;40.30;;;;;;;;;;5052927;28;20220;-75
2021/11/13 09:51:41;;;;;;;122.77;38.10;;;;;;;;;;5053479;28;21043;-75
2021/11/13 09:54:08;;;;;;;113.97;37.73;;;;;;;;;;5050217;28;20225;-74
2021/11/13 09:56:34;;;;;;;125.10;36.40;;;;;;;;;;5052123;28;20281;-75
2021/11/13 09:59:01;;;;;;;248.93;52.40;;;;;;;;;;5052457;28;20236;-74
2021/11/13 10:01:27;;;;;;;150.67;40.50;;;;;;;;;;5051343;28;20683;-75
2021/11/13 10:03:55;;;;;;;136.53;39.00;;;;;;;;;;5051788;28;20233;-74
2021/11/13 10:06:22;;;;;;;92.90;35.57;;;;;;;;;;5048175;28;20229;-75
2021/11/13 10:08:49;;;;;;;160.40;41.33;;;;;;;;;;5051603;28;20554;-75
2021/11/13 11:00:39;;;;;;;50.63;32.17;;;;;;;;;;5029553;28;20230;-76
2021/11/13 11:03:07;;;;;;;49.23;31.97;;;;;;;;;;5030968;28;20238;-75
2021/11/13 11:05:45;;;;;;;38.70;28.93;;;;;;;;;;5029456;28;20211;-74
2021/11/13 11:15:51;;;;;;;31.47;24.77;;;;;;;;;;5146857;22;20232;-78
2021/11/13 11:18:18;;;;;;;28.03;22.03;;;;;;;;;;5057879;28;20214;-78
2021/11/13 11:20:44;;;;;;;31.50;22.90;;;;;;;;;;5060685;28;20217;-78
2021/11/13 11:28:13;;;;;;;30.93;23.03;;;;;;;;;;5023067;28;20235;-76
2021/11/13 11:30:48;;;;;;;28.50;22.70;;;;;;;;;;5020925;28;20235;-76
2021/11/13 11:33:15;;;;;;;23.97;20.83;;;;;;;;;;5019655;28;20735;-77
2021/11/13 11:35:42;;;;;;;32.40;23.87;;;;;;;;;;5019509;28;20562;-77
2021/11/13 11:38:12;;;;;;;25.17;21.70;;;;;;;;;;5019593;28;20597;-76
2021/11/13 11:40:40;;;;;;;25.93;20.77;;;;;;;;;;5019437;28;20215;-75
2021/11/13 11:43:08;;;;;;;19.73;17.73;;;;;;;;;;5019208;28;20211;-77
2021/11/13 11:45:37;;;;;;;20.50;18.40;;;;;;;;;;5021335;28;20224;-77
2021/11/13 11:48:08;;;;;;;19.40;17.40;;;;;;;;;;5023000;28;20215;-77
2021/11/13 11:50:36;;;;;;;19.13;17.17;;;;;;;;;;5021525;28;20220;-75
2021/11/13 11:53:06;;;;;;;18.47;15.30;;;;;;;;;;5021336;28;20200;-76
2021/11/13 11:55:34;;;;;;;18.67;16.33;;;;;;;;;;5020564;28;20198;-75
2021/11/13 11:58:03;;;;;;;17.90;15.97;;;;;;;;;;5021502;28;20215;-75
2021/11/13 12:00:33;;;;;;;17.73;15.70;;;;;;;;;;5019565;28;20226;-76
2021/11/13 12:03:02;;;;;;;17.50;15.70;;;;;;;;;;5021098;28;20221;-76
2021/11/13 12:05:31;;;;;;;16.57;14.70;;;;;;;;;;5019931;28;20248;-76
2021/11/13 12:08:14;;;;;;;16.43;14.07;;;;;;;;;;5021206;28;21429;-76
2021/11/13 12:10:41;;;;;;;16.90;14.73;;;;;;;;;;5021570;28;20203;-76
2021/11/13 12:13:11;;;;;;;15.83;14.23;;;;;;;;;;5018079;28;20227;-76
2021/11/13 12:15:43;;;;;;;16.63;14.70;;;;;;;;;;5019459;28;20755;-76
2021/11/13 12:18:16;;;;;;;14.50;13.00;;;;;;;;;;5019948;28;20813;-75
2021/11/13 12:20:43;;;;;;;14.43;11.27;;;;;;;;;;5019621;28;20291;-75
2021/11/13 12:23:15;;;;;;;10.80;9.80;;;;;;;;;;5020803;28;20210;-75
2021/11/13 12:25:57;;;;;;;13.53;11.73;;;;;;;;;;5019910;28;20238;-75
2021/11/13 12:28:24;;;;;;;11.93;10.73;;;;;;;;;;5021965;28;20245;-75
2021/11/13 12:31:08;;;;;;;14.20;12.77;;;;;;;;;;5017936;28;20349;-77
2021/11/13 12:33:45;;;;;;;15.30;13.27;;;;;;;;;;5022188;28;20220;-76
2021/11/13 12:36:16;;;;;;;14.60;13.07;;;;;;;;;;5021306;28;20228;-76
2021/11/13 12:38:48;;;;;;;14.27;12.77;;;;;;;;;;5021205;28;20972;-76
2021/11/13 12:41:16;;;;;;;17.27;14.63;;;;;;;;;;5020905;28;20208;-76
2021/11/13 12:44:02;;;;;;;17.53;15.73;;;;;;;;;;5018672;28;20278;-76
2021/11/13 12:46:31;;;;;;;17.70;15.00;;;;;;;;;;5002558;28;20212;-76
2021/11/13 12:49:39;;;;;;;18.30;14.77;;;;;;;;;;5022015;28;20789;-76
2021/11/13 12:52:12;;;;;;;17.63;14.13;;;;;;;;;;5020900;28;20238;-76
2021/11/13 12:54:54;;;;;;;21.70;19.43;;;;;;;;;;5023327;28;20211;-76
2021/11/13 12:57:25;;;;;;;15.40;13.73;;;;;;;;;;5020289;28;20207;-76
2021/11/13 12:59:56;;;;;;;17.50;12.97;;;;;;;;;;5018517;28;20281;-76
2021/11/13 13:02:23;;;;;;;19.70;13.73;;;;;;;;;;5021396;28;20207;-76
2021/11/13 13:04:49;;;;;;;14.77;12.80;;;;;;;;;;5019063;28;20721;-76
2021/11/13 13:07:17;;;;;;;14.13;12.60;;;;;;;;;;5019868;28;20230;-75
2021/11/13 13:09:53;;;;;;;15.87;12.90;;;;;;;;;;5018852;28;20258;-75
2021/11/13 13:12:21;;;;;;;13.90;11.67;;;;;;;;;;5019229;28;20956;-76
2021/11/13 13:14:59;;;;;;;15.33;13.67;;;;;;;;;;5019798;28;20282;-76
2021/11/13 13:17:27;;;;;;;18.80;13.30;;;;;;;;;;5020517;28;20257;-77
2021/11/13 13:19:54;;;;;;;14.53;12.10;;;;;;;;;;5018555;28;20211;-76
2021/11/13 13:22:22;;;;;;;14.50;13.00;;;;;;;;;;5020501;28;20228;-76
2021/11/13 13:24:53;;;;;;;14.07;12.43;;;;;;;;;;5019576;28;20236;-77
2021/11/13 13:27:20;;;;;;;12.37;11.07;;;;;;;;;;5015846;28;20255;-76
2021/11/13 13:29:55;;;;;;;16.93;12.50;;;;;;;;;;5020883;28;20229;-76
2021/11/13 13:32:22;;;;;;;15.03;11.47;;;;;;;;;;5023779;28;20265;-76
2021/11/13 13:34:54;;;;;;;13.27;11.83;;;;;;;;;;5022398;28;20327;-76
2021/11/13 13:37:21;;;;;;;13.23;10.40;;;;;;;;;;5020353;28;20343;-76
2021/11/13 13:39:52;;;;;;;14.67;11.67;;;;;;;;;;5016968;28;20911;-76
2021/11/13 13:42:20;;;;;;;14.60;11.70;;;;;;;;;;5018462;28;20211;-75
2021/11/13 13:44:48;;;;;;;13.47;11.57;;;;;;;;;;5018967;28;20231;-76
2021/11/13 13:47:14;;;;;;;15.73;12.10;;;;;;;;;;5018924;28;20643;-76
2021/11/13 13:49:41;;;;;;;14.97;11.83;;;;;;;;;;5017826;28;20270;-75
2021/11/13 13:52:09;;;;;;;15.30;12.03;;;;;;;;;;5018905;28;20694;-75
2021/11/13 13:54:38;;;;;;;14.03;11.83;;;;;;;;;;5021031;28;20216;-76
2021/11/13 13:57:08;;;;;;;12.77;10.27;;;;;;;;;;5018941;28;20304;-76
2021/11/13 13:59:37;;;;;;;12.30;10.87;;;;;;;;;;5021032;28;20223;-76
2021/11/13 14:02:07;;;;;;;12.23;10.87;;;;;;;;;;5019071;28;20215;-76
2021/11/13 14:04:37;;;;;;;13.07;11.43;;;;;;;;;;5019616;28;20632;-76
2021/11/13 14:07:09;;;;;;;11.77;10.57;;;;;;;;;;5018586;28;20503;-76
2021/11/13 14:09:36;;;;;;;13.60;11.07;;;;;;;;;;5019902;28;20362;-76
2021/11/13 14:12:02;;;;;;;11.30;9.07;;;;;;;;;;5020134;28;20307;-76
2021/11/13 14:14:32;;;;;;;13.70;9.83;;;;;;;;;;5017675;28;20218;-76
2021/11/13 14:16:59;;;;;;;12.53;9.87;;;;;;;;;;5017644;28;20217;-78
2021/11/13 14:19:25;;;;;;;12.47;10.00;;;;;;;;;;5018389;28;20262;-76
2021/11/13 14:21:52;;;;;;;12.63;9.63;;;;;;;;;;5019321;28;20297;-76
2021/11/13 14:24:21;;;;;;;13.63;11.10;;;;;;;;;;5019461;28;20265;-75
2021/11/13 14:26:58;;;;;;;14.03;11.03;;;;;;;;;;5018407;28;20246;-75
2021/11/13 14:29:24;;;;;;;14.83;11.33;;;;;;;;;;5018024;28;20265;-75
2021/11/13 14:31:52;;;;;;;15.80;11.63;;;;;;;;;;5019168;28;20207;-75
2021/11/13 14:34:21;;;;;;;13.03;10.07;;;;;;;;;;5020305;28;20265;-78
2021/11/13 14:36:56;;;;;;;13.13;10.70;;;;;;;;;;5019809;28;20230;-78
2021/11/13 14:39:26;;;;;;;10.90;9.33;;;;;;;;;;5022698;28;20273;-77
2021/11/13 14:41:59;;;;;;;12.87;10.37;;;;;;;;;;5021663;28;20696;-78
2021/11/13 14:44:27;;;;;;;12.67;9.83;;;;;;;;;;5022480;28;21016;-77
2021/11/13 14:46:58;;;;;;;14.77;8.93;;;;;;;;;;5018334;28;20215;-77
2021/11/13 14:51:53;;;;;;;13.80;9.10;;;;;;;;;;5189205;22;20235;-77
2021/11/13 14:54:21;;;;;;;12.60;8.90;;;;;;;;;;5034222;28;20261;-77
2021/11/13 14:56:50;;;;;;;11.23;8.90;;;;;;;;;;5031783;28;20237;-77
2021/11/13 14:59:20;;;;;;;10.60;7.97;;;;;;;;;;5030155;28;20245;-77
2021/11/13 15:01:49;;;;;;;9.87;7.90;;;;;;;;;;5030840;28;20203;-77
2021/11/13 15:04:25;;;;;;;13.13;8.37;;;;;;;;;;5030748;28;20218;-77
2021/11/13 15:07:03;;;;;;;9.90;7.80;;;;;;;;;;5031142;28;20226;-77
2021/11/13 15:09:32;;;;;;;10.83;7.10;;;;;;;;;;5031885;28;20212;-77
2021/11/13 15:12:00;;;;;;;12.47;6.23;;;;;;;;;;5032567;28;20208;-76
2021/11/13 15:14:29;;;;;;;9.93;6.17;;;;;;;;;;5031543;28;20230;-76
2021/11/13 15:16:57;;;;;;;10.77;5.83;;;;;;;;;;5030921;28;20215;-77
2021/11/13 15:19:26;;;;;;;7.63;4.80;;;;;;;;;;5030989;28;20211;-77
2021/11/13 15:21:54;;;;;;;10.47;5.63;;;;;;;;;;5029171;28;20308;-76
2021/11/13 15:24:24;;;;;;;7.77;5.23;;;;;;;;;;5029818;28;20215;-77